createdAt,value
2018-12-19T00:00:15.539Z,-1.50
2018-12-19T00:02:43.573Z,-1.60
2018-12-19T00:05:11.710Z,-1.80
2018-12-19T00:07:39.844Z,-1.80
2018-12-19T00:10:08.595Z,-1.70
2018-12-19T00:12:36.650Z,-1.60
2018-12-19T00:15:04.819Z,-1.80
2018-12-19T00:17:32.649Z,-1.90
2018-12-19T00:20:00.716Z,-2.00
2018-12-19T00:22:28.751Z,-1.90
2018-12-19T00:24:56.679Z,-1.90
2018-12-19T00:27:24.713Z,-1.80
2018-12-19T00:29:52.741Z,-1.80
2018-12-19T00:32:20.878Z,-1.70
2018-12-19T00:34:48.890Z,-1.60
2018-12-19T00:37:18.459Z,-1.60
2018-12-19T00:39:47.628Z,-1.70
2018-12-19T00:42:15.871Z,-1.80
2018-12-19T00:44:43.704Z,-1.80
2018-12-19T00:47:11.636Z,-1.70
2018-12-19T00:49:39.570Z,-1.70
2018-12-19T00:52:07.338Z,-1.70
2018-12-19T00:54:35.172Z,-1.70
2018-12-19T00:57:03.004Z,-1.80
2018-12-19T00:59:31.358Z,-1.70
2018-12-19T01:01:59.614Z,-1.60
2018-12-19T01:04:27.538Z,-1.60
2018-12-19T01:06:55.673Z,-1.70
2018-12-19T01:09:23.503Z,-1.90
2018-12-19T01:11:51.942Z,-2.00
2018-12-19T01:14:20.279Z,-2.00
2018-12-19T01:16:48.210Z,-2.00
2018-12-19T01:19:16.144Z,-2.00
2018-12-19T01:21:44.168Z,-2.00
2018-12-19T01:24:13.699Z,-2.00
2018-12-19T01:26:41.951Z,-2.00
2018-12-19T01:29:10.002Z,-2.10
2018-12-19T01:31:39.264Z,-2.00
2018-12-19T01:34:08.521Z,-2.00
2018-12-19T01:36:37.834Z,-2.00
2018-12-19T01:39:06.580Z,-2.00
2018-12-19T01:41:34.374Z,-2.10
2018-12-19T01:44:03.897Z,-2.20
2018-12-19T01:46:31.921Z,-2.20
2018-12-19T01:48:59.766Z,-2.30
2018-12-19T01:51:28.228Z,-2.30
2018-12-19T01:53:56.267Z,-2.30
2018-12-19T01:56:24.066Z,-2.30
2018-12-19T01:58:52.008Z,-2.30
2018-12-19T02:01:20.033Z,-2.40
2018-12-19T02:03:48.883Z,-2.30
2018-12-19T02:06:16.979Z,-2.40
2018-12-19T02:08:44.747Z,-2.40
2018-12-19T02:11:12.671Z,-2.50
2018-12-19T02:13:40.707Z,-2.60
2018-12-19T02:16:10.253Z,-2.50
2018-12-19T02:18:38.514Z,-2.50
2018-12-19T02:21:06.337Z,-2.50
2018-12-19T02:23:34.041Z,-2.50
2018-12-19T02:26:01.793Z,-2.40
2018-12-19T02:28:30.230Z,-2.40
2018-12-19T02:30:58.161Z,-2.30
2018-12-19T02:33:26.093Z,-2.30
2018-12-19T02:35:54.636Z,-2.10
2018-12-19T02:38:22.672Z,-2.00
2018-12-19T02:40:50.599Z,-2.10
2018-12-19T02:43:18.528Z,-2.20
2018-12-19T02:45:47.893Z,-2.20
2018-12-19T02:48:15.718Z,-2.20
2018-12-19T02:50:44.580Z,-2.20
2018-12-19T02:53:12.495Z,-2.10
2018-12-19T02:55:40.323Z,-2.10
2018-12-19T02:58:08.073Z,-2.00
2018-12-19T03:00:35.980Z,-1.80
2018-12-19T03:03:04.681Z,-1.70
2018-12-19T03:05:32.450Z,-1.70
2018-12-19T03:08:00.380Z,-1.60
2018-12-19T03:10:29.240Z,-1.50
2018-12-19T03:12:57.777Z,-1.50
2018-12-19T03:15:25.602Z,-1.50
2018-12-19T03:17:53.528Z,-1.30
2018-12-19T03:20:21.952Z,-1.20
2018-12-19T03:22:49.979Z,-1.20
2018-12-19T03:25:17.840Z,-1.20
2018-12-19T03:27:45.925Z,-1.10
2018-12-19T03:30:13.863Z,-1.10
2018-12-19T03:32:41.891Z,-1.20
2018-12-19T03:35:10.743Z,-1.20
2018-12-19T03:37:38.676Z,-1.20
2018-12-19T03:40:06.815Z,-0.90
2018-12-19T03:42:34.739Z,-0.80
2018-12-19T03:45:02.531Z,-0.70
2018-12-19T03:47:30.518Z,-0.70
2018-12-19T03:49:58.427Z,-0.50
2018-12-19T03:52:26.456Z,-0.40
2018-12-19T03:54:54.388Z,-0.40
2018-12-19T03:57:24.367Z,-0.40
2018-12-19T03:59:52.199Z,-0.30
2018-12-19T04:02:20.331Z,-0.40
2018-12-19T04:04:48.162Z,-0.40
2018-12-19T04:07:15.992Z,-0.30
2018-12-19T04:09:44.023Z,-0.30
2018-12-19T04:12:12.259Z,-0.30
2018-12-19T04:14:40.206Z,-0.30
2018-12-19T04:17:08.275Z,-0.30
2018-12-19T04:19:36.042Z,-0.20
2018-12-19T04:22:04.010Z,-0.20
2018-12-19T04:24:31.894Z,-0.20
2018-12-19T04:26:59.825Z,-0.10
2018-12-19T04:29:27.649Z,-0.10
2018-12-19T04:31:55.478Z,0.00
2018-12-19T04:34:23.406Z,-0.10
2018-12-19T04:36:51.335Z,0.00
2018-12-19T04:39:19.159Z,0.00
2018-12-19T04:41:47.504Z,-0.10
2018-12-19T04:44:15.535Z,-0.10
2018-12-19T04:46:43.357Z,-0.10
2018-12-19T04:49:12.107Z,0.00
2018-12-19T04:51:40.143Z,-0.10
2018-12-19T04:54:08.072Z,-0.10
2018-12-19T04:56:36.112Z,-0.10
2018-12-19T04:59:04.059Z,0.00
2018-12-19T05:01:32.073Z,-0.10
2018-12-19T05:04:00.002Z,-0.10
2018-12-19T05:06:28.037Z,-0.10
2018-12-19T05:08:55.966Z,-0.10
2018-12-19T05:11:24.310Z,-0.10
2018-12-19T05:13:52.143Z,0.00
2018-12-19T05:16:20.070Z,0.00
2018-12-19T05:18:47.996Z,0.00
2018-12-19T05:21:15.781Z,0.10
2018-12-19T05:23:43.652Z,0.10
2018-12-19T05:26:11.881Z,0.10
2018-12-19T05:28:39.807Z,0.10
2018-12-19T05:31:07.738Z,0.10
2018-12-19T05:33:36.078Z,0.10
2018-12-19T05:36:03.895Z,0.00
2018-12-19T05:38:32.037Z,0.00
2018-12-19T05:41:00.380Z,0.00
2018-12-19T05:43:28.265Z,0.10
2018-12-19T05:45:56.144Z,0.10
2018-12-19T05:48:24.070Z,0.10
2018-12-19T05:50:51.891Z,0.20
2018-12-19T05:53:21.053Z,0.20
2018-12-19T05:55:48.979Z,0.20
2018-12-19T05:58:16.811Z,0.30
2018-12-19T06:00:44.626Z,0.30
2018-12-19T06:03:12.558Z,0.30
2018-12-19T06:05:40.392Z,0.30
2018-12-19T06:08:09.238Z,0.30
2018-12-19T06:10:37.944Z,0.20
2018-12-19T06:13:05.713Z,0.20
2018-12-19T06:15:33.493Z,0.20
2018-12-19T06:18:03.007Z,0.20
2018-12-19T06:20:31.342Z,0.20
2018-12-19T06:22:59.476Z,0.20
2018-12-19T06:25:27.409Z,0.20
2018-12-19T06:27:55.438Z,0.20
2018-12-19T06:30:27.116Z,0.20
2018-12-19T06:32:55.295Z,0.20
2018-12-19T06:35:23.221Z,0.10
2018-12-19T06:37:51.357Z,0.00
2018-12-19T06:40:19.183Z,0.10
2018-12-19T06:42:47.014Z,0.00
2018-12-19T06:45:15.661Z,0.00
2018-12-19T06:47:43.590Z,0.00
2018-12-19T06:50:11.355Z,0.00
2018-12-19T06:52:39.963Z,0.00
2018-12-19T06:55:07.790Z,0.00
2018-12-19T06:57:35.721Z,-0.10
2018-12-19T07:00:06.861Z,-0.10
2018-12-19T07:02:34.775Z,-0.10
2018-12-19T07:05:02.588Z,-0.20
2018-12-19T07:07:30.810Z,-0.20
2018-12-19T07:09:58.808Z,-0.10
2018-12-19T07:12:27.503Z,-0.10
2018-12-19T07:14:55.993Z,-0.10
2018-12-19T07:17:23.877Z,0.10
2018-12-19T07:19:51.801Z,0.00
2018-12-19T07:22:19.629Z,0.00
2018-12-19T07:24:47.558Z,0.00
2018-12-19T07:27:15.490Z,0.10
2018-12-19T07:29:43.315Z,0.20
2018-12-19T07:32:11.147Z,0.20
2018-12-19T07:34:44.238Z,0.20
2018-12-19T07:37:10.553Z,0.20
2018-12-19T07:39:38.328Z,0.30
2018-12-19T07:42:06.188Z,0.30
2018-12-19T07:44:33.934Z,0.30
2018-12-19T07:47:02.117Z,0.30
2018-12-19T07:49:31.270Z,0.30
2018-12-19T07:51:59.093Z,0.40
2018-12-19T07:54:27.023Z,0.40
2018-12-19T07:56:55.053Z,0.40
2018-12-19T07:59:22.942Z,0.40
2018-12-19T08:01:50.809Z,0.50
2018-12-19T08:04:19.466Z,0.50
2018-12-19T08:06:47.343Z,0.50
2018-12-19T08:09:15.225Z,0.50
2018-12-19T08:11:43.550Z,0.50
2018-12-19T08:14:11.481Z,0.50
2018-12-19T08:16:39.409Z,0.60
2018-12-19T08:19:07.240Z,0.70
2018-12-19T08:21:35.025Z,0.70
2018-12-19T08:24:03.057Z,0.70
2018-12-19T08:26:31.759Z,0.80
2018-12-19T08:28:59.786Z,0.80
2018-12-19T08:31:27.609Z,0.80
2018-12-19T08:33:55.537Z,0.90
2018-12-19T08:36:23.877Z,0.90
2018-12-19T08:38:51.910Z,1.00
2018-12-19T08:41:19.777Z,1.00
2018-12-19T08:43:47.767Z,1.10
2018-12-19T08:46:15.759Z,1.10
2018-12-19T08:48:44.055Z,1.10
2018-12-19T08:51:12.062Z,1.20
2018-12-19T08:53:40.198Z,1.20
2018-12-19T08:56:08.331Z,1.20
2018-12-19T08:58:36.267Z,1.30
2018-12-19T09:01:04.088Z,1.30
2018-12-19T09:03:31.914Z,1.30
2018-12-19T09:06:00.028Z,1.40
2018-12-19T09:08:28.387Z,1.40
2018-12-19T09:10:56.560Z,1.40
2018-12-19T09:13:24.558Z,1.50
2018-12-19T09:15:52.540Z,1.50
2018-12-19T09:18:20.516Z,1.60
2018-12-19T09:20:48.955Z,1.60
2018-12-19T09:23:16.884Z,1.60
2018-12-19T09:25:44.715Z,1.60
2018-12-19T09:28:13.465Z,1.70
2018-12-19T09:30:41.703Z,1.80
2018-12-19T09:33:09.982Z,1.80
2018-12-19T09:35:37.860Z,1.80
2018-12-19T09:38:05.695Z,1.90
2018-12-19T09:40:33.615Z,1.90
2018-12-19T09:43:01.446Z,1.80
2018-12-19T09:45:29.483Z,1.90
2018-12-19T09:47:57.304Z,1.80
2018-12-19T09:50:25.601Z,1.70
2018-12-19T09:52:53.578Z,1.70
2018-12-19T09:55:21.915Z,1.80
2018-12-19T09:57:49.845Z,1.80
2018-12-19T10:00:23.308Z,1.80
2018-12-19T10:02:51.252Z,1.90
2018-12-19T10:05:19.065Z,1.90
2018-12-19T10:07:46.996Z,1.80
2018-12-19T10:10:14.923Z,1.90
2018-12-19T10:12:43.545Z,1.90
2018-12-19T10:15:11.400Z,1.80
2018-12-19T10:17:41.054Z,1.80
2018-12-19T10:20:10.433Z,1.80
2018-12-19T10:22:38.258Z,1.90
2018-12-19T10:25:12.747Z,2.00
2018-12-19T10:27:40.781Z,1.90
2018-12-19T10:30:12.503Z,2.00
2018-12-19T10:32:41.439Z,2.00
2018-12-19T10:35:10.330Z,2.00
2018-12-19T10:37:38.448Z,2.00
2018-12-19T10:40:08.633Z,2.00
2018-12-19T10:42:36.457Z,2.10
2018-12-19T10:45:06.100Z,2.10
2018-12-19T10:47:33.844Z,2.10
2018-12-19T10:50:01.735Z,2.00
2018-12-19T10:52:29.774Z,2.00
2018-12-19T10:54:57.630Z,2.00
2018-12-19T10:57:25.965Z,2.10
2018-12-19T10:59:53.897Z,2.10
2018-12-19T11:02:22.293Z,2.10
2018-12-19T11:04:50.155Z,2.00
2018-12-19T11:07:18.128Z,2.00
2018-12-19T11:09:46.213Z,2.00
2018-12-19T11:12:14.247Z,2.00
2018-12-19T11:14:42.170Z,2.00
2018-12-19T11:17:10.324Z,2.10
2018-12-19T11:19:39.055Z,2.10
2018-12-19T11:22:09.033Z,2.00
2018-12-19T11:24:36.960Z,2.00
2018-12-19T11:27:04.990Z,2.10
2018-12-19T11:29:32.718Z,2.10
2018-12-19T11:32:00.543Z,2.20
2018-12-19T11:34:29.396Z,2.20
2018-12-19T11:36:57.222Z,2.20
2018-12-19T11:39:25.148Z,2.20
2018-12-19T11:41:53.390Z,2.10
2018-12-19T11:44:21.215Z,2.10
2018-12-19T11:46:49.248Z,2.10
2018-12-19T11:49:17.076Z,2.10
2018-12-19T11:51:45.004Z,2.10
2018-12-19T11:54:13.045Z,2.10
2018-12-19T11:56:41.071Z,2.20
2018-12-19T11:59:09.099Z,2.10
2018-12-19T12:01:41.367Z,2.10
2018-12-19T12:04:06.905Z,2.10
2018-12-19T12:06:34.829Z,2.10
2018-12-19T12:09:02.867Z,2.00
2018-12-19T12:11:30.873Z,2.00
2018-12-19T12:13:59.213Z,2.10
2018-12-19T12:16:27.856Z,2.20
2018-12-19T12:18:56.108Z,2.20
2018-12-19T12:21:24.037Z,2.20
2018-12-19T12:23:52.174Z,2.20
2018-12-19T12:26:20.097Z,2.20
2018-12-19T12:28:48.336Z,2.20
2018-12-19T12:31:16.364Z,2.10
2018-12-19T12:33:44.193Z,2.10
2018-12-19T12:36:12.120Z,2.10
2018-12-19T12:38:40.051Z,2.20
2018-12-19T12:41:08.185Z,2.20
2018-12-19T12:43:36.112Z,2.20
2018-12-19T12:46:03.989Z,2.30
2018-12-19T12:48:32.150Z,2.30
2018-12-19T12:51:00.207Z,2.30
2018-12-19T12:53:28.251Z,2.30
2018-12-19T12:55:56.265Z,2.20
2018-12-19T12:58:24.196Z,2.30
2018-12-19T13:00:52.404Z,2.30
2018-12-19T13:03:20.340Z,2.30
2018-12-19T13:05:48.561Z,2.40
2018-12-19T13:08:17.344Z,2.30
2018-12-19T13:10:45.413Z,2.20
2018-12-19T13:13:13.594Z,2.30
2018-12-19T13:15:43.725Z,2.20
2018-12-19T13:18:12.581Z,2.20
2018-12-19T13:20:41.282Z,2.20
2018-12-19T13:23:09.517Z,2.20
2018-12-19T13:25:37.383Z,2.20
2018-12-19T13:28:05.364Z,2.30
2018-12-19T13:30:33.289Z,2.20
2018-12-19T13:33:01.114Z,2.20
2018-12-19T13:35:29.132Z,2.20
2018-12-19T13:37:57.332Z,2.30
2018-12-19T13:40:25.293Z,2.30
2018-12-19T13:42:53.200Z,2.30
2018-12-19T13:45:21.092Z,2.30
2018-12-19T13:47:48.922Z,2.30
2018-12-19T13:50:16.906Z,2.30
2018-12-19T13:52:44.780Z,2.30
2018-12-19T13:55:12.781Z,2.40
2018-12-19T13:57:40.751Z,2.40
2018-12-19T14:00:09.763Z,2.40
2018-12-19T14:02:38.089Z,2.40
2018-12-19T14:05:06.012Z,2.40
2018-12-19T14:07:33.871Z,2.40
2018-12-19T14:10:02.075Z,2.40
2018-12-19T14:12:30.063Z,2.40
2018-12-19T14:14:58.036Z,2.40
2018-12-19T14:17:25.914Z,2.50
2018-12-19T14:19:53.846Z,2.40
2018-12-19T14:22:22.698Z,2.40
2018-12-19T14:24:50.690Z,2.40
2018-12-19T14:27:18.867Z,2.40
2018-12-19T14:29:47.002Z,2.40
2018-12-19T14:32:14.942Z,2.40
2018-12-19T14:34:42.878Z,2.30
2018-12-19T14:37:10.926Z,2.40
2018-12-19T14:39:38.751Z,2.40
2018-12-19T14:42:06.590Z,2.40
2018-12-19T14:44:34.825Z,2.40
2018-12-19T14:47:02.664Z,2.40
2018-12-19T14:49:30.492Z,2.40
2018-12-19T14:51:58.326Z,2.30
2018-12-19T14:54:26.171Z,2.40
2018-12-19T14:56:53.996Z,2.40
2018-12-19T14:59:21.818Z,2.40
2018-12-19T15:01:50.072Z,2.40
2018-12-19T15:04:17.980Z,2.40
2018-12-19T15:06:45.804Z,2.40
2018-12-19T15:09:13.940Z,2.40
2018-12-19T15:11:42.176Z,2.30
2018-12-19T15:14:10.106Z,2.30
2018-12-19T15:16:38.272Z,2.30
2018-12-19T15:19:06.622Z,2.30
2018-12-19T15:21:37.873Z,2.30
2018-12-19T15:24:06.163Z,2.20
2018-12-19T15:26:34.415Z,2.20
2018-12-19T15:29:02.400Z,2.20
2018-12-19T15:31:30.518Z,2.30
2018-12-19T15:33:58.604Z,2.30
2018-12-19T15:36:27.201Z,2.30
2018-12-19T15:38:55.104Z,2.30
2018-12-19T15:41:22.924Z,2.20
2018-12-19T15:43:50.886Z,2.20
2018-12-19T15:46:18.984Z,2.20
2018-12-19T15:48:46.881Z,2.20
2018-12-19T15:51:14.821Z,2.20
2018-12-19T15:53:42.974Z,2.20
2018-12-19T15:56:10.923Z,2.10
2018-12-19T15:58:38.929Z,2.20
2018-12-19T16:01:06.861Z,2.20
2018-12-19T16:03:34.652Z,2.10
2018-12-19T16:06:02.614Z,2.20
2018-12-19T16:08:30.442Z,2.20
2018-12-19T16:10:58.576Z,2.20
2018-12-19T16:13:26.613Z,2.20
2018-12-19T16:15:54.750Z,2.20
2018-12-19T16:18:22.861Z,2.20
2018-12-19T16:20:51.845Z,2.20
2018-12-19T16:23:19.813Z,2.20
2018-12-19T16:25:47.979Z,2.20
2018-12-19T16:28:15.937Z,2.20
2018-12-19T16:30:44.073Z,2.10
2018-12-19T16:33:12.576Z,2.20
2018-12-19T16:35:40.761Z,2.20
2018-12-19T16:38:09.865Z,2.20
2018-12-19T16:40:38.200Z,2.10
2018-12-19T16:43:06.327Z,2.10
2018-12-19T16:45:34.565Z,2.10
2018-12-19T16:48:03.001Z,2.10
2018-12-19T16:50:30.877Z,2.10
2018-12-19T16:52:59.215Z,2.10
2018-12-19T16:55:27.263Z,2.00
2018-12-19T16:57:55.498Z,2.00
2018-12-19T17:00:24.034Z,2.00
2018-12-19T17:02:52.294Z,2.00
2018-12-19T17:05:20.662Z,2.00
2018-12-19T17:07:50.204Z,2.00
2018-12-19T17:10:18.515Z,2.10
2018-12-19T17:12:52.613Z,2.10
2018-12-19T17:15:17.783Z,2.00
2018-12-19T17:17:46.376Z,2.10
2018-12-19T17:20:14.649Z,2.00
2018-12-19T17:22:43.665Z,2.10
2018-12-19T17:25:12.368Z,2.10
2018-12-19T17:27:41.205Z,2.00
2018-12-19T17:30:09.671Z,2.00
2018-12-19T17:32:38.634Z,2.00
2018-12-19T17:35:06.733Z,2.00
2018-12-19T17:37:34.678Z,2.00
2018-12-19T17:40:03.940Z,2.00
2018-12-19T17:42:31.968Z,2.00
2018-12-19T17:45:00.497Z,1.90
2018-12-19T17:47:28.857Z,2.00
2018-12-19T17:49:57.423Z,2.00
2018-12-19T17:52:26.630Z,2.00
2018-12-19T17:54:55.563Z,2.00
2018-12-19T17:57:24.286Z,2.00
2018-12-19T17:59:52.729Z,2.00
2018-12-19T18:02:20.951Z,2.00
2018-12-19T18:04:49.752Z,2.00
2018-12-19T18:07:18.266Z,2.10
2018-12-19T18:09:47.641Z,2.10
2018-12-19T18:12:16.215Z,2.10
2018-12-19T18:14:44.473Z,2.10
2018-12-19T18:17:13.083Z,2.10
2018-12-19T18:19:41.467Z,2.10
2018-12-19T18:22:10.367Z,2.10
2018-12-19T18:24:39.133Z,2.10
2018-12-19T18:27:07.954Z,2.10
2018-12-19T18:29:36.078Z,2.10
2018-12-19T18:32:04.410Z,2.10
2018-12-19T18:34:33.013Z,2.10
2018-12-19T18:37:01.702Z,2.10
2018-12-19T18:39:31.432Z,2.10
2018-12-19T18:42:00.000Z,2.10
2018-12-19T18:44:28.665Z,2.10
2018-12-19T18:46:57.251Z,2.10
2018-12-19T18:49:25.804Z,2.10
2018-12-19T18:51:54.327Z,2.20
2018-12-19T18:54:23.094Z,2.10
2018-12-19T18:56:51.815Z,2.10
2018-12-19T18:59:20.485Z,2.10
2018-12-19T19:01:49.258Z,2.10
2018-12-19T19:04:18.272Z,2.20
2018-12-19T19:06:47.145Z,2.20
2018-12-19T19:09:16.046Z,2.10
2018-12-19T19:11:44.720Z,2.10
2018-12-19T19:14:13.420Z,2.10
2018-12-19T19:16:41.955Z,2.00
2018-12-19T19:19:10.808Z,2.00
2018-12-19T19:21:40.391Z,2.10
2018-12-19T19:24:09.373Z,2.00
2018-12-19T19:26:37.759Z,2.00
2018-12-19T19:29:06.884Z,2.00
2018-12-19T19:31:34.952Z,2.00
2018-12-19T19:34:03.189Z,2.00
2018-12-19T19:36:31.839Z,2.00
2018-12-19T19:39:00.325Z,2.00
2018-12-19T19:41:28.917Z,1.90
2018-12-19T19:43:57.500Z,1.90
2018-12-19T19:46:26.207Z,2.00
2018-12-19T19:48:55.015Z,2.00
2018-12-19T19:51:23.698Z,2.00
2018-12-19T19:53:52.477Z,2.00
2018-12-19T19:56:21.197Z,1.90
2018-12-19T19:58:50.350Z,1.90
2018-12-19T20:01:18.885Z,1.90
2018-12-19T20:03:48.096Z,1.90
2018-12-19T20:06:16.794Z,1.90
2018-12-19T20:08:45.243Z,1.90
2018-12-19T20:11:14.267Z,1.80
2018-12-19T20:13:43.530Z,1.80
2018-12-19T20:16:12.623Z,1.80
2018-12-19T20:18:41.139Z,1.80
2018-12-19T20:21:10.188Z,1.80
2018-12-19T20:23:38.790Z,1.80
2018-12-19T20:26:07.523Z,1.80
2018-12-19T20:28:35.987Z,1.70
2018-12-19T20:31:04.890Z,1.70
2018-12-19T20:33:33.087Z,1.70
2018-12-19T20:36:01.392Z,1.70
2018-12-19T20:38:30.969Z,1.70
2018-12-19T20:41:00.069Z,1.70
2018-12-19T20:43:28.585Z,1.70
2018-12-19T20:45:57.306Z,1.70
2018-12-19T20:48:26.149Z,1.70
2018-12-19T20:50:55.471Z,1.80
2018-12-19T20:53:24.069Z,1.70
2018-12-19T20:55:52.798Z,1.70
2018-12-19T20:58:21.684Z,1.70
2018-12-19T21:00:50.292Z,1.70
2018-12-19T21:03:18.905Z,1.80
2018-12-19T21:05:47.391Z,1.70
2018-12-19T21:08:16.059Z,1.70
2018-12-19T21:10:44.635Z,1.70
2018-12-19T21:13:12.676Z,1.80
2018-12-19T21:15:41.379Z,1.80
2018-12-19T21:18:16.357Z,1.70
2018-12-19T21:20:45.175Z,1.70
2018-12-19T21:23:13.738Z,1.80
2018-12-19T21:25:42.185Z,1.80
2018-12-19T21:28:11.019Z,1.70
2018-12-19T21:30:39.579Z,1.80
2018-12-19T21:33:13.830Z,1.80
2018-12-19T21:35:38.448Z,1.80
2018-12-19T21:38:06.527Z,1.80
2018-12-19T21:40:34.598Z,1.70
2018-12-19T21:43:02.834Z,1.70
2018-12-19T21:45:31.302Z,1.80
2018-12-19T21:47:59.729Z,1.80
2018-12-19T21:50:27.836Z,1.80
2018-12-19T21:52:58.413Z,1.80
2018-12-19T21:55:27.306Z,1.80
2018-12-19T21:57:55.759Z,1.80
2018-12-19T22:00:25.321Z,1.80
2018-12-19T22:02:53.345Z,1.80
2018-12-19T22:05:21.293Z,1.80
2018-12-19T22:07:50.274Z,1.80
2018-12-19T22:10:18.560Z,1.80
2018-12-19T22:12:46.567Z,1.80
2018-12-19T22:15:14.712Z,1.80
2018-12-19T22:17:48.115Z,1.80
2018-12-19T22:20:16.101Z,1.80
2018-12-19T22:22:43.923Z,1.90
2018-12-19T22:25:11.853Z,1.90
2018-12-19T22:27:39.845Z,1.90
2018-12-19T22:30:08.160Z,1.90
2018-12-19T22:32:36.413Z,1.80
2018-12-19T22:35:04.801Z,1.90
2018-12-19T22:37:33.148Z,1.90
2018-12-19T22:40:01.105Z,1.90
2018-12-19T22:42:29.004Z,1.90
2018-12-19T22:44:57.266Z,1.90
2018-12-19T22:47:25.292Z,1.90
2018-12-19T22:49:53.241Z,1.90
2018-12-19T22:52:21.547Z,1.90
2018-12-19T22:54:51.006Z,1.90
2018-12-19T22:57:20.589Z,1.90
2018-12-19T22:59:50.026Z,1.90
2018-12-19T23:02:23.650Z,1.90
2018-12-19T23:04:51.872Z,1.90
2018-12-19T23:07:20.069Z,2.00
2018-12-19T23:09:47.923Z,2.00
2018-12-19T23:12:15.835Z,2.00
2018-12-19T23:14:43.791Z,2.00
2018-12-19T23:17:17.221Z,2.00
2018-12-19T23:19:45.179Z,1.90
2018-12-19T23:22:13.274Z,2.00
2018-12-19T23:24:41.378Z,2.10
2018-12-19T23:27:09.115Z,2.10
2018-12-19T23:29:37.215Z,2.00
2018-12-19T23:32:05.101Z,2.10
2018-12-19T23:34:33.086Z,2.10
2018-12-19T23:37:01.137Z,2.10
2018-12-19T23:39:29.082Z,2.10
2018-12-19T23:41:57.017Z,2.10
2018-12-19T23:44:30.576Z,2.10
2018-12-19T23:46:59.018Z,2.10
2018-12-19T23:49:26.967Z,2.10
2018-12-19T23:51:54.875Z,2.10
2018-12-19T23:54:28.880Z,2.10
2018-12-19T23:56:52.960Z,2.00
2018-12-19T23:59:21.755Z,2.10
